createdAt,value
2022-11-22T00:01:17.909Z,59.88
2022-11-22T00:03:48.159Z,59.68
2022-11-22T00:06:16.399Z,60.02
2022-11-22T00:08:44.652Z,59.80
2022-11-22T00:11:14.015Z,59.55
2022-11-22T00:13:41.916Z,59.67
2022-11-22T00:16:09.951Z,59.53
2022-11-22T00:18:37.962Z,59.89
2022-11-22T00:21:08.518Z,60.38
2022-11-22T00:23:36.585Z,61.14
2022-11-22T00:26:04.684Z,62.40
2022-11-22T00:28:33.986Z,62.23
2022-11-22T00:31:02.073Z,61.54
2022-11-22T00:33:29.978Z,61.27
2022-11-22T00:35:58.041Z,62.09
2022-11-22T00:38:26.409Z,61.80
2022-11-22T00:40:54.393Z,62.76
2022-11-22T00:43:22.434Z,63.07
2022-11-22T00:45:51.939Z,63.25
2022-11-22T00:48:19.896Z,64.05
2022-11-22T00:50:49.965Z,64.18
2022-11-22T00:53:17.982Z,63.71
2022-11-22T00:55:48.821Z,64.14
2022-11-22T00:58:18.113Z,63.63
2022-11-22T01:00:55.029Z,64.07
2022-11-22T01:03:29.775Z,63.56
2022-11-22T01:06:01.378Z,64.01
2022-11-22T01:08:29.387Z,64.11
2022-11-22T01:10:59.029Z,65.03
2022-11-22T01:13:27.246Z,65.64
2022-11-22T01:15:57.935Z,64.30
2022-11-22T01:18:28.715Z,64.12
2022-11-22T01:20:57.289Z,64.14
2022-11-22T01:23:26.161Z,64.31
2022-11-22T01:25:54.852Z,64.68
2022-11-22T01:28:24.351Z,64.23
2022-11-22T01:30:54.660Z,65.32
2022-11-22T01:33:29.269Z,64.22
2022-11-22T01:36:01.175Z,64.60
2022-11-22T01:38:31.924Z,64.02
2022-11-22T01:41:00.390Z,64.66
2022-11-22T01:43:30.176Z,64.13
2022-11-22T01:45:59.524Z,64.03
2022-11-22T01:48:46.622Z,64.91
2022-11-22T01:51:22.124Z,65.14
2022-11-22T01:53:53.910Z,66.08
2022-11-22T01:56:23.722Z,66.60
2022-11-22T01:58:55.641Z,67.29
2022-11-22T02:01:29.799Z,66.52
2022-11-22T02:03:58.584Z,66.56
2022-11-22T02:06:38.631Z,66.00
2022-11-22T02:09:11.644Z,65.65
2022-11-22T02:11:45.082Z,64.66
2022-11-22T02:14:15.061Z,64.38
2022-11-22T02:17:07.031Z,63.13
2022-11-22T02:19:41.971Z,62.87
2022-11-22T02:22:19.799Z,62.03
2022-11-22T02:24:53.582Z,60.31
2022-11-22T02:27:25.558Z,60.55
2022-11-22T02:29:57.746Z,61.19
2022-11-22T02:32:26.085Z,61.04
2022-11-22T02:34:54.056Z,60.22
2022-11-22T02:37:25.942Z,60.19
2022-11-22T02:39:58.106Z,59.83
2022-11-22T02:42:28.067Z,60.02
2022-11-22T02:44:59.196Z,60.39
2022-11-22T02:47:27.833Z,59.50
2022-11-22T02:50:03.380Z,59.32
2022-11-22T02:52:31.544Z,58.99
2022-11-22T02:55:02.337Z,59.11
2022-11-22T02:57:32.686Z,59.11
2022-11-22T03:00:01.936Z,58.42
2022-11-22T03:02:30.960Z,57.11
2022-11-22T03:04:59.186Z,56.93
2022-11-22T03:07:37.580Z,56.27
2022-11-22T03:10:06.014Z,56.56
2022-11-22T03:12:54.726Z,56.69
2022-11-22T03:15:22.803Z,56.90
2022-11-22T03:17:51.902Z,57.77
2022-11-22T03:20:20.276Z,58.43
2022-11-22T03:22:53.837Z,59.13
2022-11-22T03:25:22.581Z,59.03
2022-11-22T03:27:52.204Z,58.50
2022-11-22T03:30:20.993Z,58.07
2022-11-22T03:32:51.462Z,57.61
2022-11-22T03:35:19.663Z,57.26
2022-11-22T03:37:48.085Z,57.64
2022-11-22T03:40:22.400Z,58.13
2022-11-22T03:42:51.765Z,58.46
2022-11-22T03:45:27.039Z,56.86
2022-11-22T03:47:58.307Z,56.81
2022-11-22T03:50:27.539Z,57.64
2022-11-22T03:53:08.473Z,58.27
2022-11-22T03:55:37.027Z,57.59
2022-11-22T03:58:09.322Z,56.91
2022-11-22T04:00:43.225Z,57.51
2022-11-22T04:03:14.587Z,57.77
2022-11-22T04:05:44.619Z,57.19
2022-11-22T04:08:15.533Z,57.13
2022-11-22T04:10:44.301Z,56.70
2022-11-22T04:13:14.710Z,56.12
2022-11-22T04:15:44.233Z,55.43
2022-11-22T04:18:12.587Z,54.87
2022-11-22T04:24:10.339Z,55.46
2022-11-22T04:26:40.163Z,55.42
2022-11-22T04:29:12.090Z,55.83
2022-11-22T04:31:58.559Z,54.74
2022-11-22T04:34:32.612Z,55.19
2022-11-22T04:37:01.084Z,55.22
2022-11-22T04:39:29.777Z,54.80
2022-11-22T04:42:13.572Z,55.51
2022-11-22T04:44:45.943Z,56.46
2022-11-22T04:47:50.481Z,56.04
2022-11-22T04:50:44.004Z,56.41
2022-11-22T04:53:12.394Z,56.42
2022-11-22T04:55:41.083Z,56.77
2022-11-22T04:58:11.523Z,57.73
2022-11-22T05:00:41.739Z,57.18
2022-11-22T05:03:13.058Z,58.29
2022-11-22T05:05:42.807Z,57.48
2022-11-22T05:08:12.164Z,56.81
2022-11-22T05:10:58.091Z,56.84
2022-11-22T05:13:28.218Z,57.63
2022-11-22T05:16:01.110Z,57.84
2022-11-22T05:18:29.537Z,57.84
2022-11-22T05:20:57.498Z,58.12
2022-11-22T05:23:44.216Z,57.80
2022-11-22T05:26:12.267Z,58.64
2022-11-22T05:28:46.274Z,58.13
2022-11-22T05:31:19.135Z,58.13
2022-11-22T05:33:50.100Z,58.91
2022-11-22T05:36:18.290Z,59.05
2022-11-22T05:38:50.069Z,60.83
2022-11-22T05:41:18.324Z,60.31
2022-11-22T05:43:46.303Z,60.02
2022-11-22T05:46:24.843Z,60.54
2022-11-22T05:48:53.876Z,60.05
2022-11-22T05:51:23.635Z,59.42
2022-11-22T05:53:52.007Z,59.48
2022-11-22T06:02:08.986Z,61.02
2022-11-22T06:04:40.653Z,61.92
2022-11-22T06:07:24.784Z,63.02
2022-11-22T06:09:56.730Z,62.54
2022-11-22T06:12:26.828Z,62.86
2022-11-22T06:14:55.631Z,62.30
2022-11-22T06:17:25.022Z,62.70
2022-11-22T06:19:54.333Z,62.17
2022-11-22T06:22:26.144Z,62.50
2022-11-22T06:24:55.032Z,62.12
2022-11-22T06:27:23.274Z,61.41
2022-11-22T06:29:51.394Z,60.23
2022-11-22T06:32:21.670Z,59.81
2022-11-22T06:35:03.119Z,60.15
2022-11-22T06:37:33.957Z,59.55
2022-11-22T06:40:03.174Z,59.52
2022-11-22T06:42:31.608Z,59.40
2022-11-22T06:45:01.967Z,59.07
2022-11-22T06:47:29.943Z,58.74
2022-11-22T06:50:04.505Z,58.54
2022-11-22T06:52:41.290Z,58.89
2022-11-22T06:55:42.366Z,59.61
2022-11-22T06:58:08.894Z,60.36
2022-11-22T07:00:46.464Z,61.21
2022-11-22T07:03:15.213Z,61.74
2022-11-22T07:06:01.783Z,61.80
2022-11-22T07:08:31.668Z,62.74
2022-11-22T07:11:03.891Z,62.50
2022-11-22T07:13:34.087Z,63.35
2022-11-22T07:16:06.154Z,63.17
2022-11-22T07:18:35.915Z,63.59
2022-11-22T07:21:17.988Z,63.58
2022-11-22T07:23:49.129Z,63.38
2022-11-22T07:26:18.499Z,63.92
2022-11-22T07:28:50.139Z,63.91
2022-11-22T07:31:19.677Z,63.88
2022-11-22T07:33:51.195Z,64.13
2022-11-22T07:36:23.224Z,63.92
2022-11-22T07:38:54.495Z,63.89
2022-11-22T07:41:22.754Z,64.42
2022-11-22T07:43:50.768Z,64.36
2022-11-22T07:46:24.836Z,64.36
2022-11-22T07:48:53.237Z,64.02
2022-11-22T07:51:33.109Z,64.10
2022-11-22T07:54:05.333Z,64.44
2022-11-22T07:56:35.830Z,64.26
2022-11-22T07:59:10.117Z,64.15
2022-11-22T08:01:38.812Z,63.80
2022-11-22T08:04:17.727Z,63.93
2022-11-22T08:06:49.947Z,64.19
2022-11-22T08:09:18.236Z,64.27
2022-11-22T08:11:46.568Z,64.31
2022-11-22T08:14:14.993Z,64.13
2022-11-22T08:16:44.328Z,64.08
2022-11-22T08:19:16.051Z,64.42
2022-11-22T08:21:47.211Z,64.21
2022-11-22T08:24:15.312Z,64.30
2022-11-22T08:26:43.334Z,64.36
2022-11-22T08:29:14.564Z,64.48
2022-11-22T08:31:43.131Z,64.46
2022-11-22T08:34:14.427Z,64.78
2022-11-22T08:36:42.470Z,64.79
2022-11-22T08:39:11.845Z,64.58
2022-11-22T08:41:39.889Z,64.38
2022-11-22T08:44:08.973Z,64.66
2022-11-22T08:46:37.029Z,64.46
2022-11-22T08:49:06.507Z,64.19
2022-11-22T08:51:35.842Z,64.52
2022-11-22T08:54:03.992Z,64.51
2022-11-22T08:56:35.126Z,64.06
2022-11-22T08:59:03.880Z,64.32
2022-11-22T09:01:40.742Z,64.34
2022-11-22T09:04:11.195Z,64.11
2022-11-22T09:09:37.970Z,64.21
2022-11-22T09:12:08.946Z,64.08
2022-11-22T09:14:37.091Z,63.80
2022-11-22T09:17:12.058Z,64.12
2022-11-22T09:19:49.127Z,64.21
2022-11-22T09:22:24.045Z,64.06
2022-11-22T09:24:55.147Z,64.28
2022-11-22T09:27:27.916Z,65.06
2022-11-22T09:29:56.078Z,64.75
2022-11-22T09:32:29.345Z,64.72
2022-11-22T09:35:01.431Z,64.99
2022-11-22T09:37:31.067Z,65.17
2022-11-22T09:40:02.229Z,65.35
2022-11-22T09:42:44.478Z,65.30
2022-11-22T09:45:54.921Z,65.13
2022-11-22T09:48:31.783Z,64.79
2022-11-22T09:51:04.115Z,64.75
2022-11-22T09:53:36.506Z,65.13
2022-11-22T09:56:05.141Z,65.03
2022-11-22T09:58:36.548Z,64.57
2022-11-22T10:01:07.375Z,64.89
2022-11-22T10:03:42.446Z,64.87
2022-11-22T10:06:15.349Z,65.22
2022-11-22T10:08:45.526Z,65.27
2022-11-22T10:11:19.158Z,65.61
2022-11-22T10:13:57.166Z,65.83
2022-11-22T10:16:28.920Z,65.83
2022-11-22T10:19:00.428Z,65.79
2022-11-22T10:21:35.049Z,65.99
2022-11-22T10:24:04.446Z,65.77
2022-11-22T10:26:33.800Z,65.12
2022-11-22T10:29:19.340Z,65.01
2022-11-22T10:31:53.328Z,64.52
2022-11-22T10:34:35.051Z,64.53
2022-11-22T10:37:20.342Z,64.36
2022-11-22T10:44:36.192Z,63.87
2022-11-22T10:47:40.355Z,63.98
2022-11-22T11:02:26.668Z,64.11
2022-11-22T11:11:33.958Z,64.49
2022-11-22T11:14:42.569Z,64.48
2022-11-22T11:17:45.173Z,64.44
2022-11-22T11:21:16.411Z,65.00
2022-11-22T11:26:58.439Z,65.40
2022-11-22T11:29:45.824Z,65.27
2022-11-22T11:32:21.202Z,65.19
2022-11-22T11:35:13.411Z,65.38
2022-11-22T11:37:58.412Z,65.79
2022-11-22T11:51:02.671Z,65.33
2022-11-22T11:54:20.200Z,64.20
2022-11-22T11:58:16.255Z,63.86
2022-11-22T12:11:04.962Z,62.75
2022-11-22T12:18:28.284Z,63.37
2022-11-22T12:22:50.034Z,63.11
2022-11-22T12:30:42.280Z,63.44
2022-11-22T12:54:29.130Z,63.21
2022-11-22T12:57:21.054Z,63.14
2022-11-22T13:05:25.728Z,62.89
2022-11-22T13:30:25.925Z,60.46
2022-11-22T13:33:48.520Z,60.15
2022-11-22T13:37:23.438Z,60.05
2022-11-22T13:44:15.165Z,59.52
2022-11-22T13:47:27.054Z,59.54
2022-11-22T13:50:03.681Z,59.84
2022-11-22T14:01:20.371Z,58.88
2022-11-22T14:04:06.765Z,59.03
2022-11-22T14:06:49.747Z,58.32
2022-11-22T14:09:45.156Z,57.00
2022-11-22T14:13:34.047Z,56.32
2022-11-22T14:17:04.372Z,55.91
2022-11-22T15:09:21.647Z,53.89
2022-11-22T16:02:48.097Z,57.13
2022-11-22T16:23:15.441Z,55.72
2022-11-22T16:26:05.499Z,55.00
2022-11-22T16:28:46.166Z,54.93
2022-11-22T16:40:10.952Z,55.44
2022-11-22T16:43:00.071Z,55.05
2022-11-22T16:45:31.026Z,54.68
2022-11-22T16:48:30.381Z,54.81
2022-11-22T16:51:08.081Z,54.56
2022-11-22T16:56:55.155Z,54.53
2022-11-22T17:00:23.642Z,54.59
2022-11-22T17:03:02.441Z,54.73
2022-11-22T17:05:36.221Z,54.83
2022-11-22T17:08:17.416Z,54.95
2022-11-22T17:13:39.869Z,54.97
2022-11-22T17:16:26.235Z,55.10
2022-11-22T17:18:57.580Z,55.20
2022-11-22T17:22:01.500Z,55.11
2022-11-22T17:24:40.665Z,55.45
2022-11-22T17:27:14.622Z,55.33
2022-11-22T17:29:54.151Z,55.54
2022-11-22T17:32:27.209Z,55.38
2022-11-22T17:38:28.615Z,55.67
2022-11-22T17:44:58.034Z,55.82
2022-11-22T18:01:16.705Z,56.13
2022-11-22T18:08:31.431Z,55.96
2022-11-22T18:11:47.610Z,55.83
2022-11-22T18:14:35.163Z,55.96
2022-11-22T18:17:26.407Z,56.19
2022-11-22T19:27:51.083Z,62.14
2022-11-22T20:09:27.753Z,61.79
2022-11-22T20:36:50.718Z,60.85
2022-11-22T21:20:16.682Z,59.35
2022-11-22T21:23:44.749Z,59.08
2022-11-22T21:30:57.019Z,59.24
2022-11-22T21:45:18.881Z,58.90
2022-11-22T21:49:22.419Z,59.00
2022-11-22T22:11:02.562Z,58.92
2022-11-22T22:21:40.428Z,58.79
2022-11-22T22:55:41.777Z,58.58
2022-11-22T22:58:25.372Z,58.75
2022-11-22T23:01:08.931Z,59.06
2022-11-22T23:03:59.119Z,59.06
2022-11-22T23:06:39.090Z,58.70
2022-11-22T23:09:09.418Z,59.10
2022-11-22T23:12:10.327Z,59.08
2022-11-22T23:14:41.760Z,59.17
2022-11-22T23:17:17.205Z,58.98
2022-11-22T23:19:49.082Z,59.07
2022-11-22T23:26:43.281Z,59.48
2022-11-22T23:29:19.969Z,59.47
2022-11-22T23:35:21.190Z,59.44
2022-11-22T23:38:16.379Z,59.68
2022-11-22T23:41:28.376Z,59.63
2022-11-22T23:44:12.287Z,59.02
2022-11-22T23:47:03.523Z,59.22
2022-11-22T23:50:31.728Z,59.06
2022-11-22T23:53:13.433Z,59.14
2022-11-22T23:55:52.728Z,59.13
2022-11-22T23:58:27.736Z,59.00
